Flight Track Log - Related Links

Times and Time Zones

All times are in EDT time to prevent confusion due to time zone crossing. See the N1167M flight status page for this flight to view local times or setup timezone preferences in your user account.

Time Position Orientation Groundspeed Altitude Reporting Facility
EDT Latitude Longitude Course Direction KTS MPH feet Rate Location/Type
Sat 07:01:16 PM 31.1553 -98.8092 104° East 85 98 5,900  Level Fort Worth Center
Sat 07:02:16 PM 31.1494 -98.7822 101° East 85 98 6,100 198 Climbing Fort Worth Center
Sat 07:03:17 PM 31.1456 -98.7581 99° East 83 96 6,300 149 Climbing Fort Worth Center
Sat 07:04:17 PM 31.1417 -98.7289 89° East 84 97 6,400 99 Climbing Fort Worth Center
Sat 07:05:18 PM 31.1419 -98.7022 108° East 87 100 6,500 98 Climbing Fort Worth Center
Sat 07:06:19 PM 31.1339 -98.6728 108° East 83 96 6,600 99 Climbing Fort Worth Center
Sat 07:07:19 PM 31.1278 -98.6508 98° East 84 97 6,700 -52 Climbing Fort Worth Center
Sat 07:08:14 PM 31.1239 -98.6169 98° East 101 116 6,500 -207 Descending Fort Worth Center
Sat 07:09:15 PM 31.1200 -98.5828 101° East 109 125 6,300 -248 Descending Fort Worth Center
Sat 07:10:15 PM 31.1142 -98.5464 106° East 112 129 6,000 -298 Descending Fort Worth Center
Sat 07:11:16 PM 31.1061 -98.5125 104° East 110 127 5,700 -236 Descending Fort Worth Center
Sat 07:12:22 PM 31.0981 -98.4758 98° East 110 127 5,500 -94 Descending Fort Worth Center
Sat 07:13:23 PM 31.0942 -98.4419 99° East 104 120 5,500 -52 Level Fort Worth Center
Sat 07:14:18 PM 31.0903 -98.4128 98° East 100 115 5,400  Descending Fort Worth Center
Sat 07:15:18 PM 31.0864 -98.3786 100° East 96 110 5,500 50 Climbing Fort Worth Center
Sat 07:16:19 PM 31.0825 -98.3519 105° East 100 115 5,500  Level Fort Worth Center
Sat 07:17:19 PM 31.0742 -98.3156 102° East 104 120 5,500  Level Fort Worth Center
Sat 07:18:20 PM 31.0683 -98.2839 101° East 101 116 5,500  Level Fort Worth Center
Sat 07:19:21 PM 31.0622 -98.2475 103° East 105 121 5,500  Level Fort Worth Center
Sat 07:20:21 PM 31.0561 -98.2158 100° East 101 116 5,500 -52 Level Fort Worth Center
Sat 07:21:16 PM 31.0522 -98.1892 105° East 98 113 5,400  Descending Fort Worth Center
Sat 07:22:16 PM 31.0442 -98.1553 98° East 102 117 5,500 50 Climbing Fort Worth Center
Sat 07:23:17 PM 31.0400 -98.1211 102° East 105 121 5,500  Level Fort Worth Center
Sat 07:24:18 PM 31.0339 -98.0872 107° East 107 123 5,500  Level Fort Worth Center
Sat 07:25:18 PM 31.0258 -98.0558 107° East 102 117 5,500  Level Fort Worth Center
Sat 07:26:19 PM 31.0175 -98.0242 98° East 102 117 5,500  Level Fort Worth Center
Sat 07:27:19 PM 31.0136 -97.9903 94° East 103 119 5,500 50 Level Fort Worth Center
Sat 07:28:20 PM 31.0117 -97.9586 103° East 100 115 5,600 49 Climbing Fort Worth Center
Sat 07:29:21 PM 31.0056 -97.9272 101° East 98 113 5,600 -47 Level Fort Worth Center
Sat 07:30:27 PM 30.9994 -97.8908 99° East 103 119 5,500 -47 Descending Fort Worth Center
Sat 07:31:28 PM 30.9953 -97.8617 107° East 101 116 5,500  Level Fort Worth Center
Sat 07:32:29 PM 30.9850 -97.8228 90° East 105 121 5,500  Level Fort Worth Center
Sat 07:33:29 PM 30.9850 -97.7914 89° East 107 123 5,500  Level Fort Worth Center
Sat 07:34:30 PM 30.9853 -97.7550 98° East 108 124 5,500  Level Fort Worth Center
Sat 07:35:30 PM 30.9811 -97.7211 102° East 105 121 5,500  Level Fort Worth Center
Sat 07:36:31 PM 30.9750 -97.6872 99° East 102 117 5,500  Level Fort Worth Center
Sat 07:37:32 PM 30.9708 -97.6581 102° East 99 114 5,500 50 Level Fort Worth Center
Sat 07:38:32 PM 30.9647 -97.6242 103° East 99 114 5,600 50 Climbing Fort Worth Center
Sat 07:39:33 PM 30.9583 -97.5925 100° East 97 112 5,600 -49 Level Fort Worth Center
Sat 07:40:34 PM 30.9542 -97.5636 101° East 98 113 5,500 -99 Descending Fort Worth Center
Sat 07:41:34 PM 30.9481 -97.5272 94° East 105 121 5,400  Descending Fort Worth Center
Sat 07:42:29 PM 30.9461 -97.4981 103° East 103 119 5,500 52 Climbing Fort Worth Center
Sat 07:43:29 PM 30.9397 -97.4667 99° East 101 116 5,500 50 Level Fort Worth Center
Sat 07:44:30 PM 30.9356 -97.4375 98° East 96 110 5,600  Climbing Fort Worth Center
Sat 07:45:31 PM 30.9314 -97.4011 99° East 101 116 5,500 -50 Descending Fort Worth Center
Sat 07:46:31 PM 30.9272 -97.3697 102° East 104 120 5,500  Level Fort Worth Center
Sat 07:47:32 PM 30.9208 -97.3358 99° East 102 117 5,500 50 Level Fort Worth Center
Sat 07:48:32 PM 30.9167 -97.3044 98° East 100 115 5,600 50 Climbing Fort Worth Center
Sat 07:49:33 PM 30.9125 -97.2681 102° East 108 124 5,600 -59 Level Fort Worth Center
Sat 07:50:13 PM 30.9089 -97.2478 101° East 107 123 5,500 -53 Descending Houston Center
Sat 07:51:26 PM 30.9022 -97.2086 106° East 102 117 5,500  Level Houston Center
Sat 07:52:33 PM 30.8933 -97.1719 98° East 100 115 5,500  Level Houston Center
Sat 07:53:28 PM 30.8903 -97.1450 103° East 99 114 5,500 -49 Level Houston Center
Sat 07:54:35 PM 30.8833 -97.1108 107° East 99 114 5,400  Descending Houston Center
Sat 07:55:42 PM 30.8742 -97.0764 96° East 96 110 5,500 49 Climbing Houston Center
Sat 07:56:37 PM 30.8714 -97.0472 105° East 97 112 5,500  Level Houston Center
Sat 07:57:38 PM 30.8642 -97.0156 109° East 95 109 5,500 -49 Level Houston Center
Sat 07:58:39 PM 30.8569 -96.9908 91° East 91 105 5,400 -47 Descending Houston Center
Sat 07:59:46 PM 30.8564 -96.9522 102° East 100 115 5,400  Level Houston Center
Sat 08:00:47 PM 30.8511 -96.9231 98° East 94 108 5,400  Level Houston Center
Sat 08:01:36 PM 30.8481 -96.8961 100° East 94 108 5,400  Level Houston Center
Sat 08:02:43 PM 30.8431 -96.8622 103° East 100 115 5,400 47 Level Houston Center
Sat 08:03:44 PM 30.8361 -96.8281 98° East 97 112 5,500 49 Climbing Houston Center
Sat 08:04:45 PM 30.8328 -96.8011 112° Southeast 100 115 5,500  Level Houston Center
Sat 08:05:46 PM 30.8217 -96.7692 108° East 96 110 5,500  Level Houston Center
Sat 08:06:47 PM 30.8125 -96.7372 103° East 96 110 5,500 148 Level Houston Center
Sat 08:07:48 PM 30.8072 -96.7106 92° East 94 108 5,800 234 Climbing Houston Center
Sat 08:08:55 PM 30.8064 -96.6767 101° East 92 106 6,000 179 Climbing Houston Center
Sat 08:10:02 PM 30.8011 -96.6450 103° East 91 105 6,200 141 Climbing Houston Center
Sat 08:11:03 PM 30.7942 -96.6108 99° East 96 110 6,300 164 Climbing Houston Center
Sat 08:11:52 PM 30.7908 -96.5864 103° East 96 110 6,500 173 Climbing Houston Center
Sat 08:12:47 PM 30.7856 -96.5597 105° East 97 112 6,600 103 Climbing Houston Center
Sat 08:13:48 PM 30.7783 -96.5278 97° East 98 113 6,700 98 Climbing Houston Center
Sat 08:14:49 PM 30.7753 -96.4986 107° East 98 113 6,800 98 Climbing Houston Center
Sat 08:15:50 PM 30.7661 -96.4644 96° East 99 114 6,900 148 Climbing Houston Center
Sat 08:16:51 PM 30.7631 -96.4306 110° East 100 115 7,100 155 Climbing Houston Center
Sat 08:17:46 PM 30.7556 -96.4061 99° East 96 110 7,200 98 Climbing Houston Center
Sat 08:18:53 PM 30.7506 -96.3694 100° East 101 116 7,300 141 Climbing Houston Center
Sat 08:19:54 PM 30.7456 -96.3378 105° East 105 121 7,500 94 Climbing Houston Center
Sat 08:21:01 PM 30.7364 -96.2989 96° East 107 123 7,500  Level Houston Center
Sat 08:22:02 PM 30.7333 -96.2672 102° East 107 123 7,500  Level Houston Center
Sat 08:22:51 PM 30.7281 -96.2381 101° East 108 124 7,500  Level Houston Center
Sat 08:24:04 PM 30.7211 -96.1967 107° East 105 121 7,500  Level Houston Center
Sat 08:24:59 PM 30.7136 -96.1675 100° East 103 119 7,500  Level Houston Center
Sat 08:26:00 PM 30.7086 -96.1358 105° East 102 117 7,500 -47 Level Houston Center
Sat 08:27:07 PM 30.6994 -96.0967 102° East 106 122 7,400 -49 Descending Houston Center
Sat 08:28:02 PM 30.6942 -96.0675 96° East 104 120 7,400 49 Level Houston Center
Sat 08:29:09 PM 30.6911 -96.0314 105° East 100 115 7,500 47 Climbing Houston Center
Sat 08:30:10 PM 30.6836 -95.9994 97° East 100 115 7,500  Level Houston Center
Sat 08:31:05 PM 30.6806 -95.9706 102° East 100 115 7,500 52 Level Houston Center
Sat 08:32:06 PM 30.6753 -95.9414 104° East 100 115 7,600 43 Climbing Houston Center
Sat 08:33:25 PM 30.6661 -95.8997 102° East 98 113 7,600  Level Houston Center
Sat 08:34:14 PM 30.6606 -95.8706 102° East 102 117 7,600 -55 Level Houston Center
Sat 08:35:15 PM 30.6553 -95.8414 100° East 99 114 7,500 -49 Descending Houston Center
Sat 08:36:16 PM 30.6500 -95.8075 105° East 100 115 7,500  Level Houston Center
Sat 08:37:18 PM 30.6428 -95.7758 98° East 100 115 7,500  Level Houston Center
Sat 08:38:12 PM 30.6394 -95.7467 100° East 97 112 7,500  Level Houston Center
Sat 08:39:19 PM 30.6342 -95.7128 108° East 93 107 7,500 47 Level Houston Center
Sat 08:40:20 PM 30.6267 -95.6858 104° East 90 104 7,600  Climbing Houston Center
Sat 08:41:16 PM 30.6211 -95.6592 99° East 94 108 7,500  Descending Houston Center
Sat 08:42:22 PM 30.6161 -95.6228 100° East 99 114 7,600 47 Climbing Houston Center
Sat 08:43:24 PM 30.6108 -95.5889 109° East 98 113 7,600  Level Houston Center
Sat 08:44:19 PM 30.6031 -95.5619 96° East 98 113 7,600  Level Houston Center
Sat 08:45:26 PM 30.6000 -95.5306 107° East 102 117 7,600  Level Houston Center
Sat 08:46:32 PM 30.5906 -95.4939 98° East 102 117 7,600  Level Houston Center
Sat 08:47:27 PM 30.5872 -95.4650 107° East 102 117 7,600 -49 Level Houston Center
Sat 08:48:34 PM 30.5778 -95.4283 102° East 101 116 7,500 -49 Descending Houston Center
Sat 08:49:29 PM 30.5722 -95.3992 101° East 99 114 7,500  Level Houston Center
Sat 08:50:30 PM 30.5669 -95.3678 111° Southeast 97 112 7,500  Level Houston Center
Sat 08:51:31 PM 30.5572 -95.3383 98° East 92 106 7,500  Level Houston Center
Sat 08:52:32 PM 30.5539 -95.3094 102° East 97 112 7,500  Level Houston Center
Sat 08:53:33 PM 30.5483 -95.2778 109° East 96 110 7,500  Level Houston Center
Sat 08:54:33 PM 30.5389 -95.2461 100° East 92 106 7,500  Level Houston Center
Sat 08:55:28 PM 30.5353 -95.2219 102° East 94 108 7,500 47 Level Houston Center
Sat 08:56:41 PM 30.5281 -95.1831 100° East 100 115 7,600 45 Climbing Houston Center
Sat 08:57:42 PM 30.5244 -95.1589 102° East 85 98 7,600  Level Houston Center
Sat 08:58:36 PM 30.5189 -95.1297 102° East 94 108 7,600  Level Houston Center
Sat 08:59:31 PM 30.5133 -95.1006 105° East 97 112 7,600  Level Houston Center
Sat 09:00:32 PM 30.5058 -95.0689 100° East 95 109 7,600 -52 Level Houston Center
Sat 09:01:27 PM 30.5022 -95.0447 96° East 96 110 7,500 -50 Descending Houston Center
Sat 09:02:33 PM 30.4992 -95.0086 106° East 101 116 7,500  Level Houston Center
Sat 09:03:34 PM 30.4914 -94.9769 98° East 92 106 7,500  Level Houston Center
Sat 09:04:29 PM 30.4881 -94.9503 100° East 100 115 7,500  Level Houston Center
Sat 09:05:36 PM 30.4825 -94.9142 105° East 92 106 7,500  Level Houston Center
Sat 09:06:37 PM 30.4750 -94.8825 105° East 97 112 7,500  Level Houston Center
Sat 09:07:31 PM 30.4694 -94.8583 107° East 82 94 7,500  Level Houston Center
Sat 09:08:32 PM 30.4617 -94.8292 107° East 95 109 7,500 -49 Level Houston Center
Sat 09:09:33 PM 30.4539 -94.8000 102° East 100 115 7,400  Descending Houston Center
Sat 09:10:34 PM 30.4483 -94.7708 105° East 95 109 7,500 50 Climbing Houston Center
Sat 09:11:34 PM 30.4408 -94.7394 106° East 93 107 7,500  Level Houston Center
Sat 09:12:35 PM 30.4331 -94.7078 101° East 96 110 7,500  Level Houston Center
Sat 09:13:42 PM 30.4275 -94.6739 107° East 102 117 7,500  Level Houston Center
Sat 09:14:37 PM 30.4200 -94.6447 106° East 100 115 7,500 -52 Level Houston Center
Sat 09:15:37 PM 30.4122 -94.6133 102° East 100 115 7,400 -50 Descending Houston Center
Sat 09:16:38 PM 30.4067 -94.5819 110° East 95 109 7,400 86 Level Houston Center
Sat 09:17:57 PM 30.3950 -94.5453 102° East 98 113 7,600 94 Climbing Houston Center
Sat 09:18:46 PM 30.3911 -94.5236 104° East 89 102 7,600  Level Houston Center
Sat 09:19:46 PM 30.3836 -94.4897 93° East 100 115 7,600  Level Houston Center
Sat 09:20:47 PM 30.3822 -94.4608 106° East 99 114 7,600  Level Houston Center
Sat 09:21:48 PM 30.3744 -94.4292 98° East 100 115 7,600 -49 Level Houston Center
Sat 09:22:49 PM 30.3708 -94.3978 98° East 97 112 7,500 -98 Descending Houston Center

Login

Don't have an account? Register now (free) for customized features, flight alerts, and more!